Istanbul, Turkey

5:18 AM +03 on March 27, 2017 (GMT +0300)
Ataturk | | Change Station

Elev 121 ft 40.97 °N, 28.82 °E | Updated 28 minutes ago

Light Rain Showers
Light Showers Rain
46 °F
Feels Like 40 °F
N
16
Wind Variable Wind from NNE

Today
High -- | Low -- °F
--% Chance of Precip.
Yesterday
High -- | Low -- °F
Precip. -- in
Pressure 30.09 in
Visibility 6.2 miles
Clouds Mostly Cloudy 1300 ft
Mostly Cloudy 2500 ft
Windchill 40 °F
Dew Point 41 °F
Humidity 81%
Rainfall 0.00 in
Snow Depth Not available.
6:56 AM 7:24 PM
Waning Crescent, 1% visible
METAR LTBA 270150Z 03014KT 010V070 9999 -SHRA BKN013 BKN025 08/05 Q1019 NOSIG RMK RWY17L 03015KT 360V060 RWY05 01013KT RWY23 04014G24KT 010V070
Pressure 30.09 in
Visibility 6.2 miles
Clouds Mostly Cloudy 1300 ft
Mostly Cloudy 2500 ft
Windchill 40 °F
Dew Point 41 °F
Humidity 81%
Rainfall 0.00 in
Snow Depth Not available.
6:56 AM 7:24 PM
Waning Crescent, 1% visible
METAR LTBA 270150Z 03014KT 010V070 9999 -SHRA BKN013 BKN025 08/05 Q1019 NOSIG RMK RWY17L 03015KT 360V060 RWY05 01013KT RWY23 04014G24KT 010V070

Get Severe Weather Alerts

Thanks for signing up!

Be on the lookout for a verification email in your inbox.

You'll start receiving the daily forecast at 8 AM.

×

10-Day Weather Forecast

×

Almanac

Astronomy

Mar. 27, 2017 Rise Set
Actual Time
Civil Twilight
Nautical Twilight
Astronomical Twilight
Moon
Length of Visible Light
Length of Day
Tomorrow will be .
, % of the Moon is Illuminated

Today's Extremes

Country Highs Country Lows

Community

WunderPhotos

Upload Photos

1,962,540 photos uploaded!

WunderBlog® & News

Nearby

Air Quality

  Air Quality AQ Index Pollutant
Not available.

Snow Depth

Station Depth Elevation

Earthquake Activity

City Distance Mag. Time & Date
Minimum magnitude displayed is 2.5.

Earthquake Activity

City Distance Mag. Time & Date
Minimum magnitude displayed is 2.5.

Coastal Water Temperatures

Place Temperature

Stations

Nearby Weather Stations

Station Location Temp. Windchill Dew Point Humidity Wind Precip. Elev Updated Type